createdAt,value
2018-03-11T00:00:08.669Z,11.20
2018-03-11T00:02:35.036Z,11.20
2018-03-11T00:05:02.224Z,11.10
2018-03-11T00:07:28.625Z,11.10
2018-03-11T00:09:55.840Z,11.10
2018-03-11T00:12:22.231Z,11.10
2018-03-11T00:14:48.531Z,11.10
2018-03-11T00:17:15.595Z,11.10
2018-03-11T00:19:42.735Z,11.10
2018-03-11T00:22:09.935Z,11.10
2018-03-11T00:24:36.303Z,11.10
2018-03-11T00:27:02.677Z,11.10
2018-03-11T00:29:28.964Z,11.20
2018-03-11T00:31:55.716Z,11.30
2018-03-11T00:34:22.765Z,11.30
2018-03-11T00:36:49.936Z,11.30
2018-03-11T00:39:16.368Z,11.30
2018-03-11T00:41:42.804Z,11.40
2018-03-11T00:44:09.216Z,11.40
2018-03-11T00:46:36.296Z,11.50
2018-03-11T00:49:02.609Z,11.40
2018-03-11T00:51:28.961Z,11.40
2018-03-11T00:53:55.356Z,11.50
2018-03-11T00:56:22.536Z,11.50
2018-03-11T00:58:48.936Z,11.40
2018-03-11T01:01:15.940Z,11.10
2018-03-11T01:03:42.324Z,11.10
2018-03-11T01:06:09.383Z,10.90
2018-03-11T01:08:35.694Z,10.80
2018-03-11T01:11:02.736Z,10.70
2018-03-11T01:13:29.175Z,10.70
2018-03-11T01:15:56.343Z,10.70
2018-03-11T01:18:23.483Z,10.70
2018-03-11T01:20:51.231Z,10.80
2018-03-11T01:23:17.587Z,10.80
2018-03-11T01:25:43.895Z,10.80
2018-03-11T01:28:11.160Z,10.80
2018-03-11T01:30:38.301Z,10.90
2018-03-11T01:33:05.476Z,10.90
2018-03-11T01:35:31.888Z,10.90
2018-03-11T01:37:58.959Z,11.00
2018-03-11T01:40:25.272Z,11.00
2018-03-11T01:42:52.328Z,11.00
2018-03-11T01:45:19.302Z,11.10
2018-03-11T01:47:45.692Z,11.10
2018-03-11T01:50:12.836Z,11.10
2018-03-11T01:52:52.348Z,11.00
2018-03-11T01:55:18.700Z,11.00
2018-03-11T01:57:45.068Z,11.00
2018-03-11T02:00:11.396Z,11.00
2018-03-11T02:02:37.731Z,11.00
2018-03-11T02:05:04.147Z,11.00
2018-03-11T02:07:31.324Z,10.90
2018-03-11T02:09:57.731Z,10.90
2018-03-11T02:12:24.895Z,10.80
2018-03-11T02:14:51.199Z,10.80
2018-03-11T02:17:18.272Z,10.70
2018-03-11T02:19:44.596Z,10.70
2018-03-11T02:22:11.032Z,10.60
2018-03-11T02:24:37.348Z,10.60
2018-03-11T02:27:04.512Z,10.70
2018-03-11T02:29:30.813Z,10.70
2018-03-11T02:31:57.069Z,10.50
2018-03-11T02:34:23.371Z,10.50
2018-03-11T02:36:49.728Z,10.50
2018-03-11T02:39:16.133Z,10.50
2018-03-11T02:41:42.408Z,10.50
2018-03-11T02:44:08.801Z,10.50
2018-03-11T02:46:35.144Z,10.50
2018-03-11T02:49:02.196Z,10.50
2018-03-11T02:51:28.535Z,10.50
2018-03-11T02:53:55.544Z,10.60
2018-03-11T02:56:21.795Z,10.60
2018-03-11T02:58:48.220Z,10.60
2018-03-11T03:01:15.392Z,10.70
2018-03-11T03:03:41.817Z,10.70
2018-03-11T03:06:08.845Z,10.70
2018-03-11T03:08:35.904Z,10.70
2018-03-11T03:11:02.963Z,10.70
2018-03-11T03:13:30.124Z,10.60
2018-03-11T03:15:56.537Z,10.60
2018-03-11T03:18:23.694Z,10.60
2018-03-11T03:20:50.836Z,10.60
2018-03-11T03:23:17.904Z,10.50
2018-03-11T03:25:44.213Z,10.50
2018-03-11T03:28:11.271Z,10.40
2018-03-11T03:30:37.697Z,10.40
2018-03-11T03:33:04.865Z,10.30
2018-03-11T03:35:31.284Z,10.30
2018-03-11T03:37:58.289Z,10.20
2018-03-11T03:40:24.640Z,10.20
2018-03-11T03:42:51.724Z,9.80
2018-03-11T03:45:18.020Z,9.80
2018-03-11T03:47:44.484Z,9.70
2018-03-11T03:50:10.911Z,9.70
2018-03-11T03:52:37.173Z,9.70
2018-03-11T03:55:03.585Z,9.70
2018-03-11T03:57:29.995Z,9.70
2018-03-11T03:59:58.075Z,9.50
2018-03-11T04:02:25.116Z,9.60
2018-03-11T04:04:52.244Z,9.60
2018-03-11T04:07:19.628Z,9.50
2018-03-11T04:09:46.752Z,9.60
2018-03-11T04:12:12.984Z,9.60
2018-03-11T04:14:39.359Z,9.70
2018-03-11T04:17:05.748Z,9.70
2018-03-11T04:19:32.816Z,9.90
2018-03-11T04:21:59.992Z,9.90
2018-03-11T04:24:26.248Z,9.90
2018-03-11T04:26:52.703Z,10.00
2018-03-11T04:29:19.064Z,10.10
2018-03-11T04:31:45.376Z,10.10
2018-03-11T04:34:12.469Z,10.10
2018-03-11T04:36:38.738Z,10.10
2018-03-11T04:39:05.079Z,10.00
2018-03-11T04:41:31.537Z,10.00
2018-03-11T04:43:57.980Z,10.00
2018-03-11T04:46:24.219Z,10.00
2018-03-11T04:48:50.629Z,10.00
2018-03-11T04:51:16.947Z,10.10
2018-03-11T04:53:44.020Z,10.10
2018-03-11T04:56:10.304Z,10.10
2018-03-11T04:58:36.572Z,10.20
2018-03-11T05:01:02.877Z,10.10
2018-03-11T05:03:29.957Z,9.90
2018-03-11T05:05:56.248Z,9.90
2018-03-11T05:08:24.365Z,9.60
2018-03-11T05:10:50.623Z,9.60
2018-03-11T05:13:16.921Z,9.40
2018-03-11T05:15:43.208Z,9.30
2018-03-11T05:18:10.601Z,9.30
2018-03-11T05:20:36.896Z,9.30
2018-03-11T05:23:03.268Z,9.40
2018-03-11T05:25:29.606Z,9.40
2018-03-11T05:27:55.920Z,9.40
2018-03-11T05:30:22.222Z,9.40
2018-03-11T05:32:49.291Z,9.40
2018-03-11T05:35:15.637Z,9.40
2018-03-11T05:37:41.952Z,9.50
2018-03-11T05:40:08.269Z,9.50
2018-03-11T05:42:35.333Z,9.50
2018-03-11T05:45:01.649Z,9.50
2018-03-11T05:47:28.708Z,9.40
2018-03-11T05:49:55.008Z,9.40
2018-03-11T05:52:22.288Z,9.50
2018-03-11T05:54:48.608Z,9.50
2018-03-11T05:57:15.685Z,9.30
2018-03-11T05:59:41.984Z,9.30
2018-03-11T06:02:09.027Z,9.40
2018-03-11T06:04:36.089Z,9.40
2018-03-11T06:07:03.151Z,9.40
2018-03-11T06:09:29.469Z,9.40
2018-03-11T06:11:55.802Z,9.40
2018-03-11T06:14:22.128Z,9.50
2018-03-11T06:16:49.168Z,9.50
2018-03-11T06:19:15.451Z,9.40
2018-03-11T06:21:41.712Z,9.50
2018-03-11T06:24:08.081Z,9.60
2018-03-11T06:26:34.375Z,9.50
2018-03-11T06:29:01.525Z,9.60
2018-03-11T06:31:27.788Z,9.60
2018-03-11T06:33:54.088Z,9.70
2018-03-11T06:36:21.092Z,9.70
2018-03-11T06:38:47.449Z,9.60
2018-03-11T06:41:13.793Z,9.70
2018-03-11T06:43:40.183Z,9.60
2018-03-11T06:46:06.522Z,9.60
2018-03-11T06:48:32.809Z,9.70
2018-03-11T06:50:59.051Z,9.80
2018-03-11T06:53:25.340Z,9.90
2018-03-11T06:55:51.758Z,10.00
2018-03-11T06:58:18.134Z,10.10
2018-03-11T07:00:44.392Z,10.10
2018-03-11T07:03:10.709Z,10.20
2018-03-11T07:05:36.972Z,10.20
2018-03-11T07:08:04.840Z,10.30
2018-03-11T07:10:31.195Z,10.30
2018-03-11T07:12:57.556Z,10.40
2018-03-11T07:15:23.881Z,10.50
2018-03-11T07:17:50.237Z,10.60
2018-03-11T07:20:16.539Z,10.70
2018-03-11T07:22:43.531Z,10.70
2018-03-11T07:25:09.820Z,10.70
2018-03-11T07:27:36.196Z,10.80
2018-03-11T07:30:02.592Z,10.90
2018-03-11T07:32:28.883Z,11.00
2018-03-11T07:34:55.235Z,11.10
2018-03-11T07:37:22.321Z,11.20
2018-03-11T07:39:48.580Z,11.20
2018-03-11T07:42:14.918Z,11.30
2018-03-11T07:44:41.335Z,11.40
2018-03-11T07:47:07.580Z,11.50
2018-03-11T07:49:33.904Z,11.60
2018-03-11T07:52:00.327Z,11.70
2018-03-11T07:54:26.713Z,11.70
2018-03-11T07:56:53.104Z,11.80
2018-03-11T07:59:20.536Z,11.90
2018-03-11T08:01:46.930Z,11.90
2018-03-11T08:04:13.197Z,11.90
2018-03-11T08:06:39.488Z,12.00
2018-03-11T08:09:05.814Z,12.10
2018-03-11T08:11:32.880Z,12.10
2018-03-11T08:13:59.117Z,12.10
2018-03-11T08:16:25.468Z,12.20
2018-03-11T08:18:51.716Z,12.20
2018-03-11T08:21:17.976Z,12.40
2018-03-11T08:23:44.960Z,12.60
2018-03-11T08:26:11.244Z,12.50
2018-03-11T08:28:38.233Z,12.90
2018-03-11T08:31:04.508Z,12.90
2018-03-11T08:33:30.756Z,13.00
2018-03-11T08:35:57.776Z,13.20
2018-03-11T08:38:24.022Z,13.20
2018-03-11T08:40:51.032Z,13.40
2018-03-11T08:43:19.012Z,13.40
2018-03-11T08:45:45.316Z,13.50
2018-03-11T08:48:11.638Z,13.60
2018-03-11T08:50:37.984Z,13.60
2018-03-11T08:53:04.231Z,13.70
2018-03-11T08:55:30.583Z,13.70
2018-03-11T08:57:57.611Z,14.00
2018-03-11T09:00:23.976Z,14.00
2018-03-11T09:02:51.024Z,14.10
2018-03-11T09:05:18.102Z,14.10
2018-03-11T09:07:44.441Z,14.10
2018-03-11T09:10:10.806Z,14.10
2018-03-11T09:12:37.131Z,14.10
2018-03-11T09:15:03.486Z,14.10
2018-03-11T09:17:30.527Z,14.30
2018-03-11T09:19:56.892Z,14.20
2018-03-11T09:22:23.225Z,14.30
2018-03-11T09:24:49.589Z,14.40
2018-03-11T09:27:15.937Z,14.30
2018-03-11T09:29:42.272Z,14.40
2018-03-11T09:32:08.608Z,14.40
2018-03-11T09:34:34.977Z,14.60
2018-03-11T09:37:01.291Z,14.70
2018-03-11T09:39:28.366Z,14.70
2018-03-11T09:41:54.692Z,14.70
2018-03-11T09:44:21.234Z,14.90
2018-03-11T09:46:47.596Z,15.00
2018-03-11T09:49:14.356Z,15.10
2018-03-11T09:51:40.685Z,15.20
2018-03-11T09:54:07.056Z,15.00
2018-03-11T09:56:33.371Z,15.10
2018-03-11T09:59:00.400Z,15.40
2018-03-11T10:01:26.946Z,15.40
2018-03-11T10:03:53.980Z,15.60
2018-03-11T10:06:20.316Z,15.60
2018-03-11T10:08:47.353Z,15.90
2018-03-11T10:11:13.732Z,15.90
2018-03-11T10:13:40.040Z,16.00
2018-03-11T10:16:07.138Z,15.80
2018-03-11T10:18:33.456Z,15.80
2018-03-11T10:20:59.832Z,15.90
2018-03-11T10:23:26.168Z,16.00
2018-03-11T10:25:53.208Z,16.10
2018-03-11T10:28:19.544Z,16.10
2018-03-11T10:30:46.620Z,16.30
2018-03-11T10:33:12.969Z,16.30
2018-03-11T10:35:39.318Z,16.50
2018-03-11T10:38:05.649Z,16.60
2018-03-11T10:40:32.017Z,16.80
2018-03-11T10:42:59.080Z,16.70
2018-03-11T10:45:26.093Z,16.70
2018-03-11T10:47:52.372Z,16.70
2018-03-11T10:50:18.728Z,16.70
2018-03-11T10:52:45.064Z,16.80
2018-03-11T10:55:12.137Z,17.00
2018-03-11T10:57:38.484Z,17.00
2018-03-11T11:00:05.554Z,17.00
2018-03-11T11:02:35.871Z,17.00
2018-03-11T11:05:03.028Z,17.00
2018-03-11T11:07:29.370Z,17.00
2018-03-11T11:09:55.735Z,16.80
2018-03-11T11:12:22.052Z,16.90
2018-03-11T11:14:48.433Z,16.90
2018-03-11T11:17:15.460Z,16.70
2018-03-11T11:19:41.838Z,16.70
2018-03-11T11:22:08.078Z,16.70
2018-03-11T11:24:34.469Z,16.60
2018-03-11T11:27:00.744Z,16.60
2018-03-11T11:29:27.124Z,16.60
2018-03-11T11:31:53.428Z,16.40
2018-03-11T11:34:19.779Z,16.40
2018-03-11T11:36:46.116Z,16.40
2018-03-11T11:39:12.475Z,16.50
2018-03-11T11:41:38.835Z,16.60
2018-03-11T11:44:05.176Z,16.70
2018-03-11T11:46:31.534Z,16.70
2018-03-11T11:48:57.831Z,16.70
2018-03-11T11:51:25.921Z,16.60
2018-03-11T11:53:52.281Z,16.60
2018-03-11T11:56:19.384Z,16.90
2018-03-11T11:58:45.689Z,16.80
2018-03-11T12:01:11.986Z,16.90
2018-03-11T12:03:38.288Z,17.00
2018-03-11T12:06:04.759Z,17.00
2018-03-11T12:08:31.772Z,17.10
2018-03-11T12:10:58.037Z,17.10
2018-03-11T12:13:25.076Z,17.10
2018-03-11T12:15:52.155Z,17.20
2018-03-11T12:18:18.494Z,17.10
2018-03-11T12:20:44.855Z,17.10
2018-03-11T12:23:11.097Z,17.10
2018-03-11T12:25:38.875Z,16.90
2018-03-11T12:28:05.204Z,16.90
2018-03-11T12:30:31.652Z,16.80
2018-03-11T12:32:58.716Z,16.50
2018-03-11T12:35:25.092Z,16.50
2018-03-11T12:37:51.400Z,16.60
2018-03-11T12:40:17.664Z,16.70
2018-03-11T12:42:44.009Z,16.60
2018-03-11T12:45:11.073Z,16.60
2018-03-11T12:47:38.145Z,16.60
2018-03-11T12:50:04.496Z,16.60
2018-03-11T12:52:30.927Z,16.60
2018-03-11T12:54:57.440Z,16.70
2018-03-11T12:57:23.697Z,16.60
2018-03-11T12:59:50.064Z,16.70
2018-03-11T13:02:16.386Z,16.90
2018-03-11T13:04:42.743Z,17.10
2018-03-11T13:07:09.790Z,17.30
2018-03-11T13:09:36.889Z,17.30
2018-03-11T13:12:03.233Z,17.30
2018-03-11T13:14:29.601Z,17.40
2018-03-11T13:16:56.730Z,17.30
2018-03-11T13:19:23.076Z,17.30
2018-03-11T13:21:50.121Z,17.20
2018-03-11T13:24:17.191Z,17.20
2018-03-11T13:26:43.549Z,17.20
2018-03-11T13:29:09.824Z,17.20
2018-03-11T13:31:36.840Z,17.10
2018-03-11T13:34:11.060Z,17.10
2018-03-11T13:36:37.403Z,17.10
2018-03-11T13:39:15.984Z,17.10
2018-03-11T13:41:42.276Z,17.00
2018-03-11T13:44:09.352Z,17.00
2018-03-11T13:46:48.121Z,17.00
2018-03-11T13:49:15.145Z,16.90
2018-03-11T13:51:53.621Z,16.90
2018-03-11T13:54:19.928Z,16.70
2018-03-11T13:56:47.023Z,16.60
2018-03-11T13:59:13.427Z,16.60
2018-03-11T14:01:40.204Z,16.60
2018-03-11T14:04:06.480Z,16.70
2018-03-11T14:06:33.512Z,16.70
2018-03-11T14:08:59.777Z,16.70
2018-03-11T14:11:26.034Z,16.60
2018-03-11T14:13:52.291Z,16.60
2018-03-11T14:16:18.581Z,16.60
2018-03-11T14:18:44.900Z,16.70
2018-03-11T14:21:11.241Z,16.60
2018-03-11T14:23:37.497Z,16.60
2018-03-11T14:26:03.781Z,16.70
2018-03-11T14:28:30.119Z,16.70
2018-03-11T14:30:56.392Z,16.60
2018-03-11T14:33:22.666Z,16.60
2018-03-11T14:35:49.698Z,16.30
2018-03-11T14:38:16.697Z,16.20
2018-03-11T14:40:43.036Z,16.20
2018-03-11T14:43:09.284Z,16.00
2018-03-11T14:45:35.574Z,16.00
2018-03-11T14:48:01.853Z,16.00
2018-03-11T14:50:28.204Z,16.00
2018-03-11T14:52:55.238Z,16.00
2018-03-11T14:55:21.516Z,16.00
2018-03-11T14:57:47.787Z,16.10
2018-03-11T15:00:14.046Z,16.10
2018-03-11T15:02:42.142Z,16.00
2018-03-11T15:05:08.383Z,16.00
2018-03-11T15:07:34.671Z,16.00
2018-03-11T15:10:01.745Z,16.20
2018-03-11T15:12:28.008Z,16.10
2018-03-11T15:14:54.288Z,16.00
2018-03-11T15:17:20.569Z,15.90
2018-03-11T15:19:46.883Z,15.90
2018-03-11T15:22:13.976Z,15.70
2018-03-11T15:24:41.054Z,15.50
2018-03-11T15:27:10.429Z,15.50
2018-03-11T15:29:37.476Z,15.40
2018-03-11T15:32:04.464Z,15.40
2018-03-11T15:34:30.747Z,15.40
2018-03-11T15:36:57.393Z,15.30
2018-03-11T15:39:24.612Z,15.40
2018-03-11T15:41:50.860Z,15.30
2018-03-11T15:44:17.220Z,15.40
2018-03-11T15:46:43.470Z,15.40
2018-03-11T15:49:09.784Z,15.40
2018-03-11T15:51:36.140Z,15.40
2018-03-11T15:54:02.505Z,15.30
2018-03-11T15:56:28.783Z,15.30
2018-03-11T15:58:55.903Z,15.20
2018-03-11T16:01:22.929Z,15.10
2018-03-11T16:03:49.185Z,15.10
2018-03-11T16:06:16.200Z,15.10
2018-03-11T16:08:42.521Z,15.10
2018-03-11T16:11:08.789Z,15.10
2018-03-11T16:13:35.844Z,15.10
2018-03-11T16:16:02.172Z,15.00
2018-03-11T16:18:29.285Z,15.00
2018-03-11T16:20:55.563Z,15.00
2018-03-11T16:23:21.805Z,15.00
2018-03-11T16:25:48.201Z,15.00
2018-03-11T16:28:15.212Z,15.10
2018-03-11T16:30:41.570Z,15.10
2018-03-11T16:33:08.600Z,15.10
2018-03-11T16:35:34.898Z,15.10
2018-03-11T16:38:01.240Z,15.10
2018-03-11T16:40:27.584Z,15.10
2018-03-11T16:42:53.848Z,15.10
2018-03-11T16:45:20.892Z,15.10
2018-03-11T16:47:48.040Z,15.00
2018-03-11T16:50:15.110Z,15.00
2018-03-11T16:52:41.360Z,15.00
2018-03-11T16:55:07.709Z,15.00
2018-03-11T16:57:34.021Z,14.90
2018-03-11T17:00:00.285Z,14.90
2018-03-11T17:02:26.859Z,14.80
2018-03-11T17:04:53.181Z,14.70
2018-03-11T17:07:20.236Z,14.60
2018-03-11T17:09:47.316Z,14.60
2018-03-11T17:12:13.629Z,14.60
2018-03-11T17:14:40.004Z,14.50
2018-03-11T17:17:06.284Z,14.50
2018-03-11T17:19:32.608Z,14.40
2018-03-11T17:21:59.580Z,14.30
2018-03-11T17:24:25.890Z,14.30
2018-03-11T17:26:52.203Z,14.30
2018-03-11T17:29:19.313Z,14.30
2018-03-11T17:31:45.598Z,14.30
2018-03-11T17:34:11.880Z,14.20
2018-03-11T17:36:38.200Z,14.20
2018-03-11T17:39:05.308Z,14.10
2018-03-11T17:41:31.616Z,14.00
2018-03-11T17:43:58.724Z,14.00
2018-03-11T17:46:25.060Z,14.00
2018-03-11T17:48:51.444Z,14.00
2018-03-11T17:51:18.492Z,14.00
2018-03-11T17:53:45.510Z,13.90
2018-03-11T17:56:11.836Z,14.00
2018-03-11T17:58:38.104Z,13.90
2018-03-11T18:01:04.372Z,13.90
2018-03-11T18:03:30.632Z,14.00
2018-03-11T18:05:57.741Z,13.90
2018-03-11T18:08:24.000Z,13.90
2018-03-11T18:10:50.315Z,13.90
2018-03-11T18:13:16.704Z,13.80
2018-03-11T18:15:43.012Z,13.80
2018-03-11T18:18:10.112Z,13.70
2018-03-11T18:20:36.412Z,13.70
2018-03-11T18:23:02.725Z,13.60
2018-03-11T18:25:29.720Z,13.60
2018-03-11T18:27:56.088Z,13.60
2018-03-11T18:30:22.399Z,13.60
2018-03-11T18:32:48.783Z,13.50
2018-03-11T18:35:15.032Z,13.50
2018-03-11T18:37:41.375Z,13.50
2018-03-11T18:40:07.693Z,13.50
2018-03-11T18:42:34.064Z,13.50
2018-03-11T18:45:00.391Z,13.50
2018-03-11T18:47:26.675Z,13.60
2018-03-11T18:49:52.968Z,13.60
2018-03-11T18:52:20.064Z,13.70
2018-03-11T18:54:46.382Z,13.70
2018-03-11T18:57:13.648Z,13.70
2018-03-11T18:59:39.898Z,13.80
2018-03-11T19:02:06.281Z,13.80
2018-03-11T19:04:32.549Z,13.80
2018-03-11T19:06:58.789Z,13.70
2018-03-11T19:09:25.090Z,13.70
2018-03-11T19:11:51.364Z,13.70
2018-03-11T19:14:17.620Z,13.70
2018-03-11T19:16:44.627Z,13.80
2018-03-11T19:19:10.872Z,13.80
2018-03-11T19:21:37.288Z,13.80
2018-03-11T19:24:04.372Z,13.80
2018-03-11T19:26:31.474Z,13.70
2018-03-11T19:28:57.712Z,13.70
2018-03-11T19:31:23.952Z,13.70
2018-03-11T19:33:50.206Z,13.80
2018-03-11T19:36:17.188Z,13.80
2018-03-11T19:38:43.480Z,13.80
2018-03-11T19:41:10.515Z,13.30
2018-03-11T19:43:36.905Z,13.20
2018-03-11T19:46:03.172Z,13.20
2018-03-11T19:48:29.475Z,13.30
2018-03-11T19:50:55.732Z,13.30
2018-03-11T19:53:21.996Z,13.20
2018-03-11T19:55:48.236Z,13.20
2018-03-11T19:58:14.508Z,13.20
2018-03-11T20:00:40.760Z,13.30
2018-03-11T20:03:07.800Z,13.20
2018-03-11T20:05:34.772Z,13.10
2018-03-11T20:08:01.064Z,13.10
2018-03-11T20:10:27.604Z,13.20
2018-03-11T20:12:53.931Z,13.20
2018-03-11T20:15:20.280Z,13.20
2018-03-11T20:17:47.368Z,13.00
2018-03-11T20:20:13.697Z,13.00
2018-03-11T20:22:40.028Z,13.00
2018-03-11T20:25:06.430Z,13.00
2018-03-11T20:27:33.440Z,12.80
2018-03-11T20:29:59.817Z,12.80
2018-03-11T20:32:26.125Z,12.90
2018-03-11T20:34:53.208Z,12.80
2018-03-11T20:37:19.440Z,12.80
2018-03-11T20:39:45.796Z,12.90
2018-03-11T20:42:12.116Z,13.00
2018-03-11T20:44:38.504Z,13.10
2018-03-11T20:47:05.481Z,13.10
2018-03-11T20:49:31.796Z,13.10
2018-03-11T20:51:58.347Z,13.10
2018-03-11T20:54:25.416Z,13.10
2018-03-11T20:56:51.728Z,13.10
2018-03-11T20:59:18.172Z,13.10
2018-03-11T21:01:44.527Z,13.00
2018-03-11T21:04:10.889Z,12.90
2018-03-11T21:06:37.944Z,13.00
2018-03-11T21:09:05.037Z,13.00
2018-03-11T21:11:31.336Z,13.00
2018-03-11T21:13:57.600Z,13.00
2018-03-11T21:16:23.920Z,13.00
2018-03-11T21:18:50.297Z,12.90
2018-03-11T21:21:17.325Z,12.80
2018-03-11T21:23:43.642Z,12.80
2018-03-11T21:26:09.931Z,12.80
2018-03-11T21:28:36.302Z,12.80
2018-03-11T21:31:03.365Z,12.60
2018-03-11T21:33:29.739Z,12.60
2018-03-11T21:35:56.035Z,12.60
2018-03-11T21:38:22.399Z,12.40
2018-03-11T21:40:48.728Z,12.40
2018-03-11T21:43:15.092Z,12.30
2018-03-11T21:45:41.432Z,12.30
2018-03-11T21:48:07.777Z,12.20
2018-03-11T21:50:34.804Z,11.90
2018-03-11T21:53:01.073Z,11.80
2018-03-11T21:55:27.403Z,11.90
2018-03-11T21:57:53.760Z,11.90
2018-03-11T22:00:20.096Z,11.90
2018-03-11T22:02:46.464Z,11.90
2018-03-11T22:05:12.806Z,11.80
2018-03-11T22:07:39.177Z,11.70
2018-03-11T22:10:06.233Z,11.60
2018-03-11T22:12:32.499Z,11.60
2018-03-11T22:14:58.796Z,11.50
2018-03-11T22:17:25.150Z,11.40
2018-03-11T22:19:51.480Z,11.40
2018-03-11T22:22:17.816Z,11.40
2018-03-11T22:24:44.079Z,11.40
2018-03-11T22:27:10.420Z,11.30
2018-03-11T22:29:36.744Z,11.30
2018-03-11T22:32:03.123Z,11.20
2018-03-11T22:34:29.444Z,11.10
2018-03-11T22:36:55.771Z,11.10
2018-03-11T22:39:22.044Z,11.10
2018-03-11T22:41:48.375Z,11.10
2018-03-11T22:44:15.479Z,11.10
2018-03-11T22:46:41.741Z,11.10
2018-03-11T22:49:08.039Z,11.10
2018-03-11T22:51:34.363Z,11.00
2018-03-11T22:54:00.728Z,11.00
2018-03-11T22:56:26.971Z,10.90
2018-03-11T22:58:53.320Z,10.90
2018-03-11T23:01:19.643Z,10.90
2018-03-11T23:03:46.000Z,10.90
2018-03-11T23:06:13.085Z,10.80
2018-03-11T23:08:39.344Z,10.80
2018-03-11T23:11:05.646Z,10.70
2018-03-11T23:13:32.020Z,10.70
2018-03-11T23:15:58.326Z,10.60
2018-03-11T23:18:24.692Z,10.60
2018-03-11T23:20:51.739Z,10.50
2018-03-11T23:23:18.088Z,10.50
2018-03-11T23:25:45.153Z,10.50
2018-03-11T23:28:11.500Z,10.50
2018-03-11T23:30:38.098Z,10.40
2018-03-11T23:33:05.152Z,10.40
2018-03-11T23:35:32.168Z,10.40
2018-03-11T23:37:58.544Z,10.40
2018-03-11T23:40:24.864Z,10.30
2018-03-11T23:42:51.180Z,10.20
2018-03-11T23:45:18.291Z,10.30
2018-03-11T23:47:44.605Z,10.30
2018-03-11T23:50:10.973Z,10.30
2018-03-11T23:52:37.221Z,10.20
2018-03-11T23:55:04.281Z,10.20
2018-03-11T23:57:31.401Z,10.20
2018-03-11T23:59:57.985Z,10.20
